createdAt,value
2022-08-05T00:02:07.577Z,78.25
2022-08-05T00:04:37.624Z,82.88
2022-08-05T00:07:27.039Z,81.78
2022-08-05T00:09:53.364Z,83.25
2022-08-05T00:12:21.318Z,84.73
2022-08-05T00:14:48.582Z,84.41
2022-08-05T00:17:18.613Z,84.42
2022-08-05T00:19:58.018Z,85.69
2022-08-05T00:22:28.774Z,86.72
2022-08-05T00:24:55.325Z,89.13
2022-08-05T00:27:21.725Z,87.62
2022-08-05T00:29:56.299Z,87.00
2022-08-05T00:32:22.944Z,89.21
2022-08-05T00:35:05.172Z,89.21
2022-08-05T00:37:51.207Z,89.90
2022-08-05T00:40:27.019Z,92.34
2022-08-05T00:42:59.350Z,91.76
2022-08-05T00:45:37.987Z,93.03
2022-08-05T00:48:10.550Z,93.76
2022-08-05T00:50:41.322Z,92.75
2022-08-05T00:53:09.519Z,92.35
2022-08-05T00:55:43.685Z,92.78
2022-08-05T00:58:19.140Z,95.03
2022-08-05T01:00:47.282Z,93.42
2022-08-05T01:03:22.665Z,92.52
2022-08-05T01:05:54.564Z,91.77
2022-08-05T01:08:41.548Z,92.72
2022-08-05T01:11:22.428Z,91.48
2022-08-05T01:14:09.015Z,93.71
2022-08-05T01:16:47.854Z,93.40
2022-08-05T01:19:36.495Z,93.52
2022-08-05T01:22:24.285Z,92.03
2022-08-05T01:25:15.498Z,92.37
2022-08-05T01:28:16.985Z,92.63
2022-08-05T01:30:53.789Z,92.92
2022-08-05T01:33:26.217Z,93.31
2022-08-05T01:35:55.407Z,93.33
2022-08-05T01:38:29.091Z,92.99
2022-08-05T01:41:01.924Z,93.50
2022-08-05T01:43:30.128Z,94.39
2022-08-05T01:45:57.748Z,95.37
2022-08-05T01:48:27.071Z,95.12
2022-08-05T01:50:56.672Z,96.19
2022-08-05T01:53:55.088Z,95.76
2022-08-05T01:56:13.342Z,96.06
2022-08-05T01:59:02.503Z,95.68
2022-08-05T02:01:40.138Z,95.57
2022-08-05T02:04:09.082Z,96.21
2022-08-05T02:06:38.962Z,97.88
2022-08-05T02:09:07.139Z,96.90
2022-08-05T02:11:47.756Z,96.99
2022-08-05T02:14:19.942Z,96.66
2022-08-05T02:16:53.379Z,97.12
2022-08-05T02:19:27.504Z,97.67
2022-08-05T02:22:26.710Z,97.26
2022-08-05T02:25:02.405Z,98.23
2022-08-05T02:27:57.896Z,99.05
2022-08-05T02:30:19.536Z,98.45
2022-08-05T02:32:49.883Z,98.41
2022-08-05T02:35:28.051Z,98.24
2022-08-05T02:38:00.447Z,99.24
2022-08-05T02:40:29.957Z,98.39
2022-08-05T02:42:59.647Z,99.26
2022-08-05T02:45:28.510Z,99.79
2022-08-05T02:48:16.008Z,99.83
2022-08-05T02:50:47.032Z,99.12
2022-08-05T02:53:18.651Z,99.76
2022-08-05T02:55:55.289Z,98.66
2022-08-05T02:58:27.512Z,99.22
2022-08-05T03:00:58.868Z,98.95
2022-08-05T03:03:28.002Z,99.18
2022-08-05T03:06:55.503Z,98.28
2022-08-05T03:08:52.223Z,98.76
2022-08-05T03:11:53.529Z,98.48
2022-08-05T03:14:07.878Z,99.27
2022-08-05T03:16:35.827Z,99.74
2022-08-05T03:19:04.195Z,98.43
2022-08-05T03:21:41.359Z,99.77
2022-08-05T03:24:09.528Z,100.00
2022-08-05T03:26:39.931Z,100.00
2022-08-05T03:29:06.414Z,99.84
2022-08-05T03:31:56.772Z,99.24
2022-08-05T03:34:24.771Z,98.78
2022-08-05T03:36:53.532Z,99.37
2022-08-05T03:39:27.134Z,100.00
2022-08-05T03:41:56.259Z,99.36
2022-08-05T03:44:24.038Z,99.33
2022-08-05T03:46:50.612Z,98.66
2022-08-05T03:49:17.102Z,99.42
2022-08-05T03:52:48.403Z,99.39
2022-08-05T03:56:04.251Z,99.93
2022-08-05T03:57:53.421Z,100.00
2022-08-05T04:00:25.851Z,100.00
2022-08-05T04:02:58.345Z,100.00
2022-08-05T04:05:33.643Z,100.00
2022-08-05T04:08:14.690Z,100.00
2022-08-05T04:10:53.152Z,100.00
2022-08-05T04:13:21.565Z,99.23
2022-08-05T04:16:03.059Z,100.00
2022-08-05T04:18:32.177Z,100.00
2022-08-05T04:21:00.803Z,100.00
2022-08-05T04:24:05.273Z,100.00
2022-08-05T04:26:15.746Z,100.00
2022-08-05T04:28:50.882Z,100.00
2022-08-05T04:31:19.111Z,100.00
2022-08-05T04:34:17.733Z,100.00
2022-08-05T04:36:45.455Z,100.00
2022-08-05T04:39:13.477Z,100.00
2022-08-05T04:41:40.001Z,100.00
2022-08-05T04:44:08.874Z,100.00
2022-08-05T04:46:36.767Z,100.00
2022-08-05T04:49:03.330Z,100.00
2022-08-05T04:51:30.531Z,100.00
2022-08-05T04:53:57.384Z,100.00
2022-08-05T04:56:34.987Z,100.00
2022-08-05T04:59:21.681Z,100.00
2022-08-05T05:02:07.436Z,100.00
2022-08-05T05:04:38.189Z,100.00
2022-08-05T05:07:05.195Z,100.00
2022-08-05T05:09:37.298Z,100.00
2022-08-05T05:12:05.039Z,100.00
2022-08-05T05:14:33.066Z,100.00
2022-08-05T05:17:03.349Z,100.00
2022-08-05T05:19:36.611Z,100.00
2022-08-05T05:22:24.218Z,100.00
2022-08-05T05:24:57.083Z,100.00
2022-08-05T05:27:44.730Z,100.00
2022-08-05T05:30:30.604Z,100.00
2022-08-05T05:33:00.956Z,100.00
2022-08-05T05:35:37.723Z,100.00
2022-08-05T05:38:09.307Z,100.00
2022-08-05T05:40:48.347Z,100.00
2022-08-05T05:43:27.662Z,100.00
2022-08-05T05:46:10.683Z,100.00
2022-08-05T05:48:44.039Z,100.00
2022-08-05T05:51:15.691Z,100.00
2022-08-05T05:53:54.184Z,100.00
2022-08-05T05:56:34.432Z,100.00
2022-08-05T05:59:07.449Z,100.00
2022-08-05T06:01:37.877Z,100.00
2022-08-05T06:04:11.716Z,100.00
2022-08-05T06:06:47.407Z,100.00
2022-08-05T06:09:18.203Z,100.00
2022-08-05T06:11:59.692Z,100.00
2022-08-05T06:14:33.317Z,100.00
2022-08-05T06:17:02.187Z,100.00
2022-08-05T06:19:57.040Z,100.00
2022-08-05T06:22:28.379Z,100.00
2022-08-05T06:24:56.838Z,100.00
2022-08-05T06:28:10.481Z,100.00
2022-08-05T06:30:17.976Z,100.00
2022-08-05T06:32:48.184Z,100.00
2022-08-05T06:36:03.031Z,100.00
2022-08-05T06:38:11.167Z,100.00
2022-08-05T06:40:42.095Z,100.00
2022-08-05T06:43:58.581Z,100.00
2022-08-05T06:46:06.909Z,100.00
2022-08-05T06:48:53.246Z,100.00
2022-08-05T06:51:21.764Z,100.00
2022-08-05T06:53:54.694Z,100.00
2022-08-05T06:56:26.573Z,100.00
2022-08-05T06:58:53.781Z,100.00
2022-08-05T07:01:20.924Z,100.00
2022-08-05T07:03:47.660Z,100.00
2022-08-05T07:06:15.269Z,100.00
2022-08-05T07:08:47.183Z,100.00
2022-08-05T07:11:15.881Z,100.00
2022-08-05T07:14:01.741Z,100.00
2022-08-05T07:17:59.179Z,100.00
2022-08-05T07:22:28.443Z,100.00
2022-08-05T07:25:22.547Z,100.00
2022-08-05T07:27:57.399Z,100.00
2022-08-05T07:30:34.270Z,100.00
2022-08-05T07:33:09.234Z,99.02
2022-08-05T07:36:05.113Z,96.40
2022-08-05T07:38:33.409Z,97.06
2022-08-05T07:41:35.067Z,94.98
2022-08-05T07:43:52.356Z,94.90
2022-08-05T07:46:24.773Z,93.23
2022-08-05T07:49:01.909Z,92.78
2022-08-05T07:51:48.957Z,92.83
2022-08-05T07:54:21.993Z,93.41
2022-08-05T07:57:14.538Z,92.64
2022-08-05T07:59:40.407Z,90.48
2022-08-05T08:02:16.650Z,89.55
2022-08-05T08:04:48.983Z,89.19
2022-08-05T08:07:22.841Z,89.53
2022-08-05T08:09:52.146Z,89.01
2022-08-05T08:12:35.549Z,90.45
2022-08-05T08:15:09.742Z,90.33
2022-08-05T08:17:46.231Z,90.04
2022-08-05T08:20:43.574Z,90.93
2022-08-05T08:23:07.439Z,90.54
2022-08-05T08:26:00.124Z,89.14
2022-08-05T08:28:36.831Z,86.68
2022-08-05T08:31:09.076Z,86.81
2022-08-05T08:33:37.991Z,86.69
2022-08-05T08:38:57.910Z,87.03
2022-08-05T08:41:50.679Z,85.78
2022-08-05T08:45:24.221Z,83.01
2022-08-05T08:47:47.103Z,84.43
2022-08-05T08:50:23.417Z,84.59
2022-08-05T08:52:54.538Z,85.04
2022-08-05T08:56:02.205Z,85.29
2022-08-05T08:58:12.926Z,85.35
2022-08-05T09:00:40.562Z,84.15
2022-08-05T09:03:09.055Z,84.24
2022-08-05T09:05:38.707Z,82.14
2022-08-05T09:08:27.382Z,82.00
2022-08-05T09:10:57.147Z,82.14
2022-08-05T09:13:24.526Z,82.89
2022-08-05T09:15:58.101Z,82.07
2022-08-05T09:18:25.558Z,82.81
2022-08-05T09:20:51.988Z,83.88
2022-08-05T09:23:21.639Z,83.35
2022-08-05T09:26:03.326Z,82.91
2022-08-05T09:28:34.338Z,83.34
2022-08-05T09:32:39.082Z,84.50
2022-08-05T09:34:01.060Z,85.14
2022-08-05T09:36:54.402Z,84.68
2022-08-05T09:39:42.016Z,83.93
2022-08-05T09:42:12.722Z,84.65
2022-08-05T09:44:44.618Z,85.36
2022-08-05T09:47:21.295Z,84.39
2022-08-05T09:50:02.438Z,83.98
2022-08-05T09:52:34.231Z,84.42
2022-08-05T09:55:56.749Z,84.52
2022-08-05T09:57:59.957Z,84.25
2022-08-05T10:00:27.791Z,84.82
2022-08-05T10:02:58.662Z,84.39
2022-08-05T10:05:27.954Z,83.55
2022-08-05T10:08:35.947Z,83.57
2022-08-05T10:10:45.027Z,83.17
2022-08-05T10:13:45.515Z,82.53
2022-08-05T10:16:41.773Z,83.79
2022-08-05T10:19:23.813Z,82.48
2022-08-05T10:22:15.634Z,82.16
2022-08-05T10:24:56.182Z,80.28
2022-08-05T10:27:26.008Z,81.53
2022-08-05T10:30:41.444Z,81.49
2022-08-05T10:33:01.444Z,82.03
2022-08-05T10:35:29.299Z,83.31
2022-08-05T10:38:08.404Z,83.69
2022-08-05T10:40:51.909Z,83.60
2022-08-05T10:43:46.190Z,82.77
2022-08-05T10:46:18.838Z,82.92
2022-08-05T10:49:00.604Z,83.52
2022-08-05T10:52:05.159Z,82.76
2022-08-05T10:54:47.225Z,82.97
2022-08-05T10:57:29.519Z,82.64
2022-08-05T11:00:19.555Z,81.86
2022-08-05T11:02:58.984Z,82.08
2022-08-05T11:06:15.362Z,82.07
2022-08-05T11:09:32.056Z,83.31
2022-08-05T11:12:54.502Z,81.09
2022-08-05T11:15:59.023Z,80.93
2022-08-05T11:18:34.236Z,81.41
2022-08-05T11:21:06.346Z,81.49
2022-08-05T11:24:04.678Z,80.74
2022-08-05T11:26:32.560Z,79.47
2022-08-05T11:29:06.979Z,79.96
2022-08-05T11:31:54.089Z,80.71
2022-08-05T11:34:47.564Z,78.58
2022-08-05T11:38:28.304Z,77.24
2022-08-05T11:41:54.389Z,76.33
2022-08-05T11:44:06.730Z,77.06
2022-08-05T11:47:10.109Z,76.74
2022-08-05T11:49:26.908Z,77.00
2022-08-05T11:51:54.415Z,75.51
2022-08-05T11:54:33.369Z,75.19
2022-08-05T11:57:02.152Z,76.41
2022-08-05T11:59:41.431Z,73.31
2022-08-05T12:02:30.616Z,71.33
2022-08-05T12:05:00.841Z,72.20
2022-08-05T12:08:07.309Z,68.87
2022-08-05T12:10:24.744Z,69.61
2022-08-05T12:12:59.234Z,69.46
2022-08-05T12:15:37.947Z,70.25
2022-08-05T12:18:10.804Z,69.99
2022-08-05T12:20:38.780Z,69.70
2022-08-05T12:23:12.476Z,70.50
2022-08-05T12:25:50.067Z,70.43
2022-08-05T12:28:37.828Z,69.36
2022-08-05T12:31:05.731Z,67.41
2022-08-05T12:33:36.448Z,66.46
2022-08-05T12:36:08.132Z,65.92
2022-08-05T12:38:40.154Z,66.73
2022-08-05T12:41:17.214Z,68.18
2022-08-05T12:43:57.442Z,69.81
2022-08-05T12:46:29.796Z,70.53
2022-08-05T12:48:58.536Z,70.21
2022-08-05T12:52:12.061Z,70.44
2022-08-05T12:54:26.578Z,71.05
2022-08-05T12:56:58.897Z,69.58
2022-08-05T12:59:27.449Z,69.95
2022-08-05T13:02:00.104Z,69.10
2022-08-05T13:04:41.676Z,71.72
2022-08-05T13:07:56.194Z,69.84
2022-08-05T13:10:13.126Z,70.25
2022-08-05T13:12:50.801Z,70.90
2022-08-05T13:15:41.980Z,71.50
2022-08-05T13:18:19.792Z,71.84
2022-08-05T13:20:49.243Z,70.18
2022-08-05T13:23:22.134Z,70.22
2022-08-05T13:25:52.301Z,71.50
2022-08-05T13:28:25.623Z,71.93
2022-08-05T13:30:53.436Z,72.09
2022-08-05T13:34:21.228Z,72.25
2022-08-05T13:36:09.235Z,72.27
2022-08-05T13:38:42.474Z,72.05
2022-08-05T13:41:11.079Z,73.51
2022-08-05T13:43:44.916Z,73.21
2022-08-05T13:46:50.855Z,73.56
2022-08-05T13:49:10.468Z,73.24
2022-08-05T13:51:41.669Z,73.55
2022-08-05T13:54:15.154Z,74.74
2022-08-05T13:56:45.398Z,75.44
2022-08-05T13:59:24.375Z,75.40
2022-08-05T14:01:58.210Z,75.32
2022-08-05T14:05:05.603Z,74.20
2022-08-05T14:08:00.611Z,73.63
2022-08-05T14:10:28.878Z,73.70
2022-08-05T14:12:57.916Z,74.50
2022-08-05T14:16:08.518Z,73.61
2022-08-05T14:18:14.789Z,74.29
2022-08-05T14:20:47.209Z,73.61
2022-08-05T14:23:18.995Z,74.38
2022-08-05T14:25:58.551Z,73.41
2022-08-05T14:28:27.793Z,73.55
2022-08-05T14:30:55.688Z,72.37
2022-08-05T14:33:22.635Z,72.42
2022-08-05T14:35:52.097Z,71.85
2022-08-05T14:38:32.506Z,71.82
2022-08-05T14:41:05.918Z,71.26
2022-08-05T14:43:57.620Z,71.48
2022-08-05T14:46:28.357Z,71.02
2022-08-05T14:48:57.085Z,70.59
2022-08-05T14:51:23.936Z,69.59
2022-08-05T14:54:06.576Z,68.85
2022-08-05T14:56:37.987Z,68.60
2022-08-05T14:59:11.298Z,68.09
2022-08-05T15:01:48.487Z,68.04
2022-08-05T15:04:17.315Z,69.17
2022-08-05T15:06:49.442Z,69.02
2022-08-05T15:09:52.025Z,68.84
2022-08-05T15:12:09.058Z,67.34
2022-08-05T15:14:48.157Z,66.41
2022-08-05T15:17:44.471Z,65.97
2022-08-05T15:20:03.723Z,65.48
2022-08-05T15:22:30.114Z,64.43
2022-08-05T15:24:58.881Z,64.04
2022-08-05T15:27:25.464Z,63.25
2022-08-05T15:29:54.201Z,63.93
2022-08-05T15:32:27.357Z,64.68
2022-08-05T15:34:56.800Z,64.29
2022-08-05T15:38:08.616Z,63.30
2022-08-05T15:41:03.268Z,62.68
2022-08-05T15:43:09.217Z,62.43
2022-08-05T15:45:45.769Z,62.32
2022-08-05T15:48:14.071Z,62.42
2022-08-05T15:50:41.595Z,60.43
2022-08-05T15:53:12.468Z,60.78
2022-08-05T15:56:01.364Z,59.85
2022-08-05T15:58:26.107Z,60.56
2022-08-05T16:01:11.855Z,60.78
2022-08-05T16:03:40.895Z,59.29
2022-08-05T16:06:08.818Z,58.15
2022-08-05T16:08:38.068Z,58.10
2022-08-05T16:11:04.643Z,59.00
2022-08-05T16:13:34.486Z,58.72
2022-08-05T16:16:03.399Z,57.64
2022-08-05T16:18:30.758Z,57.44
2022-08-05T16:20:57.402Z,57.90
2022-08-05T16:23:24.176Z,57.59
2022-08-05T16:25:55.866Z,58.75
2022-08-05T16:28:22.428Z,56.63
2022-08-05T16:30:52.035Z,56.94
2022-08-05T16:33:19.381Z,56.41
2022-08-05T16:35:48.800Z,56.91
2022-08-05T16:38:25.199Z,56.62
2022-08-05T16:41:00.088Z,55.50
2022-08-05T16:43:30.191Z,55.93
2022-08-05T16:46:04.095Z,56.08
2022-08-05T16:48:38.357Z,55.83
2022-08-05T16:51:08.932Z,55.18
2022-08-05T16:54:02.377Z,55.43
2022-08-05T16:56:25.058Z,56.50
2022-08-05T16:58:51.560Z,55.97
2022-08-05T17:01:18.863Z,55.03
2022-08-05T17:03:45.980Z,54.49
2022-08-05T17:06:12.608Z,54.14
2022-08-05T17:08:52.927Z,54.26
2022-08-05T17:11:20.403Z,53.95
2022-08-05T17:13:50.586Z,53.05
2022-08-05T17:16:33.626Z,53.69
2022-08-05T17:19:02.741Z,53.70
2022-08-05T17:21:36.002Z,53.91
2022-08-05T17:24:19.388Z,54.01
2022-08-05T17:26:55.671Z,54.70
2022-08-05T17:29:33.111Z,55.50
2022-08-05T17:32:00.786Z,54.57
2022-08-05T17:34:29.920Z,54.40
2022-08-05T17:37:00.270Z,54.37
2022-08-05T17:39:29.899Z,54.48
2022-08-05T17:42:17.767Z,54.47
2022-08-05T17:44:51.188Z,54.12
2022-08-05T17:47:22.598Z,54.32
2022-08-05T17:50:03.635Z,54.87
2022-08-05T17:52:34.863Z,54.30
2022-08-05T17:55:20.766Z,55.20
2022-08-05T17:57:48.735Z,55.55
2022-08-05T18:00:17.345Z,55.07
2022-08-05T18:02:46.661Z,54.68
2022-08-05T18:05:13.679Z,54.06
2022-08-05T18:07:43.914Z,54.16
2022-08-05T18:10:11.697Z,54.08
2022-08-05T18:12:47.588Z,54.42
2022-08-05T18:15:14.119Z,54.64
2022-08-05T18:17:59.134Z,54.03
2022-08-05T18:20:29.145Z,54.42
2022-08-05T18:22:58.669Z,54.49
2022-08-05T18:25:33.080Z,54.62
2022-08-05T18:27:59.914Z,54.92
2022-08-05T18:30:32.205Z,55.00
2022-08-05T18:33:00.173Z,55.46
2022-08-05T18:35:28.328Z,55.72
2022-08-05T18:38:16.492Z,55.95
2022-08-05T18:41:53.397Z,56.41
2022-08-05T18:43:37.960Z,56.81
2022-08-05T18:46:09.734Z,57.04
2022-08-05T18:48:41.783Z,56.94
2022-08-05T18:52:05.715Z,57.51
2022-08-05T18:54:14.136Z,57.37
2022-08-05T18:56:40.584Z,58.24
2022-08-05T18:59:44.358Z,58.25
2022-08-05T19:01:58.256Z,58.38
2022-08-05T19:04:25.842Z,58.20
2022-08-05T19:06:53.547Z,58.09
2022-08-05T19:09:20.530Z,58.78
2022-08-05T19:12:00.114Z,58.94
2022-08-05T19:14:59.105Z,59.04
2022-08-05T19:17:15.029Z,59.70
2022-08-05T19:19:46.765Z,59.40
2022-08-05T19:22:17.090Z,58.20
2022-08-05T19:24:54.248Z,56.81
2022-08-05T19:27:22.842Z,57.03
2022-08-05T19:29:49.921Z,57.02
2022-08-05T19:32:16.388Z,56.80
2022-08-05T19:34:54.937Z,56.99
2022-08-05T19:37:29.918Z,56.83
2022-08-05T19:40:12.587Z,57.04
2022-08-05T19:42:41.837Z,57.54
2022-08-05T19:45:27.415Z,57.87
2022-08-05T19:47:59.815Z,58.14
2022-08-05T19:50:26.431Z,58.34
2022-08-05T19:52:52.848Z,58.36
2022-08-05T19:56:15.093Z,57.42
2022-08-05T19:58:28.463Z,57.17
2022-08-05T20:00:53.016Z,57.01
2022-08-05T20:03:19.475Z,56.75
2022-08-05T20:05:51.452Z,56.73
2022-08-05T20:08:18.769Z,56.41
2022-08-05T20:10:49.427Z,56.65
2022-08-05T20:13:16.839Z,56.87
2022-08-05T20:15:51.723Z,56.32
2022-08-05T20:18:33.253Z,56.13
2022-08-05T20:21:01.739Z,56.03
2022-08-05T20:23:39.899Z,56.26
2022-08-05T20:26:17.772Z,56.37
2022-08-05T20:28:47.848Z,56.46
2022-08-05T20:31:14.383Z,56.12
2022-08-05T20:33:43.722Z,56.74
2022-08-05T20:36:11.576Z,56.46
2022-08-05T20:38:40.896Z,56.87
2022-08-05T20:41:26.689Z,56.61
2022-08-05T20:43:59.803Z,56.62
2022-08-05T20:46:29.430Z,56.53
2022-08-05T20:48:56.068Z,57.03
2022-08-05T20:51:22.612Z,57.23
2022-08-05T20:53:56.199Z,57.80
2022-08-05T20:56:28.075Z,57.83
2022-08-05T20:58:55.596Z,58.33
2022-08-05T21:01:38.616Z,58.51
2022-08-05T21:04:07.188Z,58.13
2022-08-05T21:06:36.476Z,58.64
2022-08-05T21:09:05.526Z,59.07
2022-08-05T21:12:07.279Z,59.57
2022-08-05T21:14:18.743Z,59.85
2022-08-05T21:16:45.409Z,59.96
2022-08-05T21:19:12.034Z,59.94
2022-08-05T21:21:39.380Z,59.68
2022-08-05T21:24:13.122Z,59.96
2022-08-05T21:26:39.774Z,60.22
2022-08-05T21:29:08.078Z,59.92
2022-08-05T21:31:40.906Z,59.81
2022-08-05T21:34:08.594Z,59.96
2022-08-05T21:36:37.167Z,59.95
2022-08-05T21:39:03.769Z,59.80
2022-08-05T21:41:34.358Z,59.58
2022-08-05T21:44:04.389Z,59.22
2022-08-05T21:46:34.315Z,58.97
2022-08-05T21:49:01.283Z,58.98
2022-08-05T21:52:15.950Z,59.32
2022-08-05T21:54:14.136Z,59.26
2022-08-05T21:56:44.553Z,59.16
2022-08-05T21:59:22.455Z,59.37
2022-08-05T22:01:51.616Z,59.65
2022-08-05T22:04:21.351Z,58.88
2022-08-05T22:06:52.194Z,59.15
2022-08-05T22:09:21.141Z,59.08
2022-08-05T22:11:49.064Z,59.23
2022-08-05T22:14:33.746Z,59.20
2022-08-05T22:17:06.711Z,58.43
2022-08-05T22:19:57.486Z,57.98
2022-08-05T22:22:28.182Z,57.75
2022-08-05T22:25:18.067Z,58.02
2022-08-05T22:28:09.564Z,57.97
2022-08-05T22:30:56.482Z,58.30
2022-08-05T22:33:57.025Z,58.22
2022-08-05T22:36:15.363Z,58.42
2022-08-05T22:38:43.912Z,58.67
2022-08-05T22:41:15.053Z,58.18
2022-08-05T22:43:41.649Z,58.43
2022-08-05T22:46:12.210Z,58.28
2022-08-05T22:48:47.579Z,58.31
2022-08-05T22:51:16.122Z,58.16
2022-08-05T22:53:50.234Z,58.64
2022-08-05T22:56:17.287Z,58.68
2022-08-05T22:58:56.361Z,58.05
2022-08-05T23:01:22.816Z,58.07
2022-08-05T23:04:09.191Z,59.01
2022-08-05T23:06:36.704Z,58.19
2022-08-05T23:09:27.133Z,58.24
2022-08-05T23:11:50.300Z,58.70
2022-08-05T23:14:22.735Z,58.51
2022-08-05T23:17:18.612Z,58.69
2022-08-05T23:19:57.976Z,58.47
2022-08-05T23:22:27.383Z,58.44
2022-08-05T23:24:54.727Z,58.62
2022-08-05T23:27:21.381Z,59.28
2022-08-05T23:29:50.681Z,59.86
2022-08-05T23:32:17.238Z,59.86
2022-08-05T23:34:49.863Z,60.32
2022-08-05T23:37:18.146Z,60.05
2022-08-05T23:39:54.423Z,60.50
2022-08-05T23:42:23.613Z,60.93
2022-08-05T23:44:56.332Z,61.02
2022-08-05T23:47:25.105Z,61.26
2022-08-05T23:49:55.561Z,61.14
2022-08-05T23:52:36.157Z,61.17
2022-08-05T23:55:16.583Z,61.31
2022-08-05T23:57:43.940Z,61.23
